Wheeling, Minnesota
Current Conditions -  °F | °C
As of 12:54 AM on Friday 28 Nov 2014 (Local Time) from KSYN Reporting Station
Light Snow Light Snow  
Wind Chill: 10°   Ceiling: 800
Heat Index: 10°   Visibility: 1.5mi
Dew Point:   Wind: 3mph
Humidity: 82%   Direction: 130°SE
Pressure: 30.22"   Gusts: NA
Location:  44.3494°N, 93.0986°W
Report Text: KSYN 280654Z AUTO 13003KT 1 1/2SM -SN OVC008 M12/M15 A3022 RMK AO2 T11251150
Loading
Personal Weather Stations






























Interactive Weather Map New forecast layout! Learn more

10-Day Weather Forecast

Advertisements
Track Severe Weather on mobile